This is the latest recevied weather packets stored in our database for station/object EA1IRT-1. If no packets are shown the sender has not sent any weather packets the latest 1 day(s).
| Time | Temp. | Humidity | Pressure | Rain* | Wind** | Luminosity | Snow |
|---|---|---|---|---|---|---|---|
| 1778088416 | 17.22° C | 66% | 1014.1 hPa | - | - | - | - |
| 1778086616 | 17.78° C | 63% | 1014.2 hPa | - | - | - | - |
| 1778085716 | 17.78° C | 63% | 1014.2 hPa | - | - | - | - |
| 1778077566 | 20° C | 53% | 1014.6 hPa | - | - | - | - |
| 1778076666 | 20.56° C | 56% | 1014.7 hPa | - | - | - | - |
| 1778074866 | 20.56° C | 56% | 1014.9 hPa | - | - | - | - |
| 1778069470 | 21.11° C | 54% | 1015.3 hPa | - | - | - | - |
| 1778068563 | 20.56° C | 55% | 1015.3 hPa | - | - | - | - |
| 1778065863 | 18.33° C | 59% | 1015.7 hPa | - | - | - | - |
| 1778064963 | 18.33° C | 61% | 1015.7 hPa | - | - | - | - |
| 1778058669 | 17.22° C | 72% | 1015.6 hPa | - | - | - | - |
| 1778057762 | 16.11° C | 72% | 1015.6 hPa | - | - | - | - |
| 1778056862 | 16.11° C | 73% | 1015.5 hPa | - | - | - | - |
| 1778055962 | 15.56° C | 75% | 1015.7 hPa | - | - | - | - |
| 1778055062 | 16.11° C | 75% | 1015.6 hPa | - | - | - | - |
| 1778054162 | 16.11° C | 74% | 1015.6 hPa | - | - | - | - |
| 1778053262 | 16.67° C | 74% | 1015.4 hPa | - | - | - | - |
| 1778052362 | 15.56° C | 77% | 1015.5 hPa | - | - | - | - |
| 1778046961 | 10.56° C | 99% | 1015.3 hPa | - | - | - | - |
| 1778046061 | 10.56° C | 100% | 1015.4 hPa | - | - | - | - |
| 1778045161 | 10.56° C | 97% | 1015.2 hPa | - | - | - | - |
| 1778044261 | 10.56° C | 96% | 1015.1 hPa | - | - | - | - |
| 1778043361 | 10.56° C | 97% | 1015.2 hPa | - | - | - | - |
| 1778042461 | 11.11° C | 97% | 1015.2 hPa | - | - | - | - |
| 1778041539 | 11.11° C | 96% | 1015.2 hPa | - | - | - | - |
* Rain since midnight (hover to see other rain measurements)
** Current wind speed in m/s (hover to see current wind gust speed)